createdAt,value
2023-02-23T00:01:48.630Z,8.50
2023-02-23T00:04:19.856Z,8.50
2023-02-23T00:06:52.905Z,8.50
2023-02-23T00:09:24.728Z,8.50
2023-02-23T00:11:57.499Z,8.50
2023-02-23T00:14:31.396Z,8.50
2023-02-23T00:17:02.518Z,8.40
2023-02-23T00:19:35.734Z,8.50
2023-02-23T00:22:06.812Z,8.50
2023-02-23T00:24:39.063Z,8.50
2023-02-23T00:27:10.211Z,8.40
2023-02-23T00:29:41.467Z,8.40
2023-02-23T00:32:12.775Z,8.40
2023-02-23T00:34:43.908Z,8.50
2023-02-23T00:37:17.151Z,8.50
2023-02-23T00:39:48.612Z,8.30
2023-02-23T00:42:19.591Z,8.50
2023-02-23T00:44:50.780Z,8.50
2023-02-23T00:47:22.244Z,8.50
2023-02-23T00:49:53.357Z,8.40
2023-02-23T00:52:24.413Z,8.30
2023-02-23T00:54:56.192Z,8.30
2023-02-23T00:57:27.188Z,8.40
2023-02-23T00:59:58.160Z,8.40
2023-02-23T01:02:30.960Z,8.30
2023-02-23T01:05:02.479Z,8.30
2023-02-23T01:07:33.993Z,8.30
2023-02-23T01:10:08.762Z,8.30
2023-02-23T01:12:39.738Z,8.30
2023-02-23T01:15:13.037Z,8.30
2023-02-23T01:17:44.075Z,8.30
2023-02-23T01:20:19.395Z,8.40
2023-02-23T01:22:52.408Z,8.30
2023-02-23T01:25:24.755Z,8.40
2023-02-23T01:27:55.892Z,8.50
2023-02-23T01:30:26.928Z,8.50
2023-02-23T01:32:57.969Z,8.50
2023-02-23T01:35:28.932Z,8.50
2023-02-23T01:38:00.055Z,8.50
2023-02-23T01:40:31.346Z,8.50
2023-02-23T01:43:11.232Z,8.40
2023-02-23T01:45:43.521Z,8.40
2023-02-23T01:48:17.564Z,8.40
2023-02-23T01:50:52.665Z,8.30
2023-02-23T01:53:25.201Z,8.30
2023-02-23T01:55:58.657Z,8.30
2023-02-23T01:58:31.839Z,8.30
2023-02-23T02:01:03.267Z,8.30
2023-02-23T02:03:37.333Z,8.30
2023-02-23T02:06:12.945Z,8.30
2023-02-23T02:08:46.897Z,8.40
2023-02-23T02:11:28.628Z,8.50
2023-02-23T02:16:49.143Z,8.50
2023-02-23T02:19:48.960Z,8.60
2023-02-23T02:22:48.574Z,8.50
2023-02-23T02:25:46.050Z,8.50
2023-02-23T02:31:57.262Z,8.50
2023-02-23T02:34:55.860Z,8.50
2023-02-23T02:37:35.154Z,8.50
2023-02-23T02:40:17.257Z,8.40
2023-02-23T02:43:12.782Z,8.40
2023-02-23T02:45:48.638Z,8.40
2023-02-23T02:48:25.930Z,8.30
2023-02-23T02:50:59.811Z,8.20
2023-02-23T02:53:34.504Z,8.20
2023-02-23T02:56:08.133Z,8.10
2023-02-23T02:58:39.968Z,8.10
2023-02-23T03:01:33.723Z,8.10
2023-02-23T03:04:42.313Z,8.10
2023-02-23T03:07:34.140Z,8.20
2023-02-23T03:10:27.908Z,8.10
2023-02-23T03:13:19.740Z,8.10
2023-02-23T03:16:13.713Z,8.00
2023-02-23T03:19:16.606Z,8.10
2023-02-23T03:22:09.458Z,8.10
2023-02-23T03:25:17.880Z,8.20
2023-02-23T03:28:10.121Z,8.20
2023-02-23T03:31:07.575Z,8.20
2023-02-23T03:34:16.196Z,8.10
2023-02-23T03:37:08.949Z,8.00
2023-02-23T03:40:17.162Z,7.90
2023-02-23T03:43:08.782Z,7.80
2023-02-23T03:45:59.886Z,7.80
2023-02-23T03:48:50.800Z,7.70
2023-02-23T03:51:41.605Z,7.70
2023-02-23T03:54:33.539Z,7.70
2023-02-23T03:57:25.287Z,7.70
2023-02-23T04:00:17.498Z,7.40
2023-02-23T04:03:08.848Z,7.30
2023-02-23T04:06:02.380Z,7.40
2023-02-23T04:08:53.701Z,7.50
2023-02-23T04:11:45.423Z,7.10
2023-02-23T04:14:18.868Z,7.00
2023-02-23T04:16:49.856Z,7.10
2023-02-23T04:19:21.063Z,7.20
2023-02-23T04:21:52.455Z,7.20
2023-02-23T04:24:41.825Z,7.20
2023-02-23T04:27:13.045Z,7.30
2023-02-23T04:29:44.250Z,7.40
2023-02-23T04:32:18.219Z,7.40
2023-02-23T04:34:49.245Z,7.00
2023-02-23T04:37:20.439Z,6.70
2023-02-23T04:39:51.361Z,6.50
2023-02-23T04:42:23.096Z,6.90
2023-02-23T04:44:54.123Z,7.20
2023-02-23T04:47:25.221Z,7.20
2023-02-23T04:49:56.351Z,7.20
2023-02-23T04:52:27.177Z,7.00
2023-02-23T04:54:58.149Z,6.90
2023-02-23T04:57:29.161Z,7.10
2023-02-23T05:00:00.286Z,7.10
2023-02-23T05:02:32.228Z,7.20
2023-02-23T05:05:03.223Z,7.20
2023-02-23T05:07:34.488Z,7.20
2023-02-23T05:10:05.980Z,7.20
2023-02-23T05:12:37.101Z,7.30
2023-02-23T05:17:48.721Z,7.30
2023-02-23T05:20:20.599Z,7.30
2023-02-23T05:22:51.666Z,7.20
2023-02-23T05:25:22.892Z,7.00
2023-02-23T05:27:53.937Z,7.00
2023-02-23T05:30:25.226Z,7.00
2023-02-23T05:32:56.532Z,6.90
2023-02-23T05:35:27.686Z,6.50
2023-02-23T05:37:58.738Z,6.80
2023-02-23T05:40:29.671Z,6.90
2023-02-23T05:45:42.686Z,6.80
2023-02-23T05:50:55.987Z,6.60
2023-02-23T05:53:26.934Z,6.40
2023-02-23T05:55:57.829Z,6.40
2023-02-23T05:58:28.770Z,6.20
2023-02-23T06:00:59.912Z,6.20
2023-02-23T06:03:30.701Z,6.20
2023-02-23T06:06:02.091Z,6.30
2023-02-23T06:08:33.191Z,6.30
2023-02-23T06:11:04.143Z,6.10
2023-02-23T06:13:35.384Z,5.80
2023-02-23T06:16:08.776Z,5.80
2023-02-23T06:18:40.312Z,5.80
2023-02-23T06:21:11.156Z,5.90
2023-02-23T06:23:42.157Z,6.00
2023-02-23T06:26:13.398Z,6.20
2023-02-23T06:28:44.348Z,6.10
2023-02-23T06:31:15.164Z,6.10
2023-02-23T06:33:46.265Z,6.00
2023-02-23T06:36:17.300Z,5.90
2023-02-23T06:38:48.661Z,6.00
2023-02-23T06:41:20.123Z,5.90
2023-02-23T06:43:52.074Z,6.00
2023-02-23T06:46:23.577Z,5.90
2023-02-23T06:48:57.073Z,6.00
2023-02-23T06:51:28.528Z,6.20
2023-02-23T06:53:59.571Z,6.20
2023-02-23T06:56:31.459Z,6.20
2023-02-23T06:59:02.353Z,6.40
2023-02-23T07:01:33.386Z,6.50
2023-02-23T07:04:05.547Z,6.50
2023-02-23T07:06:36.753Z,6.60
2023-02-23T07:09:07.785Z,6.70
2023-02-23T07:11:38.996Z,6.70
2023-02-23T07:14:15.366Z,6.70
2023-02-23T07:16:44.717Z,6.70
2023-02-23T07:19:15.740Z,6.40
2023-02-23T07:21:46.759Z,6.30
2023-02-23T07:24:17.567Z,6.30
2023-02-23T07:26:49.784Z,6.30
2023-02-23T07:29:21.363Z,6.30
2023-02-23T07:31:52.830Z,6.20
2023-02-23T07:34:23.877Z,6.30
2023-02-23T07:36:54.914Z,6.30
2023-02-23T07:39:26.264Z,6.40
2023-02-23T07:41:57.471Z,6.40
2023-02-23T07:44:28.345Z,6.40
2023-02-23T07:46:59.417Z,6.30
2023-02-23T07:49:31.410Z,6.30
2023-02-23T07:52:02.600Z,6.50
2023-02-23T07:54:33.710Z,6.60
2023-02-23T07:57:04.794Z,6.70
2023-02-23T07:59:36.071Z,6.90
2023-02-23T08:02:07.257Z,7.10
2023-02-23T08:04:38.615Z,7.20
2023-02-23T08:07:10.157Z,7.30
2023-02-23T08:09:41.125Z,7.40
2023-02-23T08:12:12.412Z,7.50
2023-02-23T08:14:43.502Z,7.50
2023-02-23T08:17:14.789Z,7.60
2023-02-23T08:19:45.660Z,7.90
2023-02-23T08:22:16.863Z,8.10
2023-02-23T08:24:47.886Z,8.30
2023-02-23T08:27:18.937Z,8.50
2023-02-23T08:29:51.512Z,8.60
2023-02-23T08:32:22.778Z,8.60
2023-02-23T08:34:54.260Z,8.70
2023-02-23T08:37:25.362Z,8.80
2023-02-23T08:39:56.825Z,8.80
2023-02-23T08:42:28.028Z,8.80
2023-02-23T08:44:59.242Z,8.90
2023-02-23T08:47:30.254Z,9.00
2023-02-23T08:50:01.427Z,9.00
2023-02-23T08:52:32.523Z,9.10
2023-02-23T08:55:03.262Z,9.00
2023-02-23T08:57:36.463Z,9.00
2023-02-23T09:00:11.591Z,9.00
2023-02-23T09:02:43.132Z,8.90
2023-02-23T09:05:14.820Z,8.90
2023-02-23T09:07:47.259Z,9.00
2023-02-23T09:10:22.891Z,9.00
2023-02-23T09:12:54.247Z,9.20
2023-02-23T09:15:25.149Z,9.40
2023-02-23T09:17:56.191Z,9.50
2023-02-23T09:20:27.214Z,9.60
2023-02-23T09:22:58.217Z,9.70
2023-02-23T09:25:29.489Z,9.80
2023-02-23T09:28:00.575Z,9.60
2023-02-23T09:30:31.537Z,9.60
2023-02-23T09:33:02.524Z,9.80
2023-02-23T09:35:34.575Z,9.90
2023-02-23T09:38:06.922Z,10.00
2023-02-23T09:40:47.302Z,10.00
2023-02-23T09:43:21.436Z,10.20
2023-02-23T09:45:55.463Z,10.30
2023-02-23T09:48:29.187Z,10.30
2023-02-23T09:51:21.439Z,10.40
2023-02-23T09:53:55.736Z,10.50
2023-02-23T09:56:32.125Z,10.70
2023-02-23T09:59:03.645Z,11.00
2023-02-23T10:01:56.941Z,10.70
2023-02-23T10:04:30.793Z,10.60
2023-02-23T10:07:04.647Z,10.50
2023-02-23T10:09:52.036Z,10.60
2023-02-23T10:12:26.696Z,10.60
2023-02-23T10:15:13.612Z,10.70
2023-02-23T10:17:48.235Z,10.30
2023-02-23T10:20:26.113Z,10.60
2023-02-23T10:22:59.923Z,10.80
2023-02-23T10:25:33.011Z,10.80
2023-02-23T10:28:05.823Z,10.80
2023-02-23T10:30:37.586Z,10.90
2023-02-23T10:33:13.554Z,11.00
2023-02-23T10:35:44.629Z,10.90
2023-02-23T10:38:18.748Z,10.90
2023-02-23T10:40:52.171Z,11.10
2023-02-23T10:43:23.226Z,11.10
2023-02-23T10:45:54.850Z,11.10
2023-02-23T10:48:28.804Z,11.20
2023-02-23T10:51:02.596Z,11.40
2023-02-23T10:53:40.184Z,11.50
2023-02-23T10:56:14.608Z,11.60
2023-02-23T10:58:48.176Z,11.80
2023-02-23T11:01:21.884Z,11.80
2023-02-23T11:04:05.366Z,11.90
2023-02-23T11:06:34.544Z,11.90
2023-02-23T11:09:21.585Z,11.80
2023-02-23T11:12:00.652Z,11.90
2023-02-23T11:14:32.988Z,12.10
2023-02-23T11:17:04.083Z,12.40
2023-02-23T11:19:38.385Z,12.60
2023-02-23T11:22:12.590Z,12.50
2023-02-23T11:24:44.013Z,12.90
2023-02-23T11:27:23.926Z,13.20
2023-02-23T11:29:57.549Z,13.40
2023-02-23T11:32:32.692Z,13.60
2023-02-23T11:35:32.900Z,13.80
2023-02-23T11:38:17.372Z,13.70
2023-02-23T11:40:55.143Z,13.90
2023-02-23T11:43:26.048Z,14.00
2023-02-23T11:45:59.152Z,13.90
2023-02-23T11:48:50.063Z,13.90
2023-02-23T11:51:28.681Z,13.70
2023-02-23T11:54:00.680Z,14.00
2023-02-23T11:56:33.351Z,14.20
2023-02-23T11:59:07.470Z,14.20
2023-02-23T12:01:44.254Z,14.00
2023-02-23T12:04:30.650Z,13.90
2023-02-23T12:07:24.508Z,13.80
2023-02-23T12:10:00.171Z,13.80
2023-02-23T12:12:33.882Z,14.10
2023-02-23T12:15:10.330Z,14.60
2023-02-23T12:17:45.174Z,14.70
2023-02-23T12:20:19.276Z,14.90
2023-02-23T12:22:53.305Z,15.40
2023-02-23T12:25:27.814Z,15.50
2023-02-23T12:28:18.182Z,15.50
2023-02-23T12:30:43.961Z,15.50
2023-02-23T12:33:18.674Z,15.00
2023-02-23T12:35:53.605Z,14.80
2023-02-23T12:38:31.129Z,14.40
2023-02-23T12:41:05.599Z,13.90
2023-02-23T12:43:41.355Z,14.10
2023-02-23T12:46:16.140Z,14.20
2023-02-23T12:48:56.102Z,14.30
2023-02-23T12:51:31.568Z,14.40
2023-02-23T12:54:02.553Z,14.40
2023-02-23T12:56:44.178Z,14.40
2023-02-23T12:59:23.084Z,14.40
2023-02-23T13:01:58.795Z,14.30
2023-02-23T13:04:43.622Z,14.10
2023-02-23T13:07:18.595Z,14.00
2023-02-23T13:09:55.952Z,13.90
2023-02-23T13:12:33.504Z,13.90
2023-02-23T13:15:11.735Z,13.80
2023-02-23T13:17:45.898Z,13.90
2023-02-23T13:20:21.638Z,13.80
2023-02-23T13:22:56.376Z,13.70
2023-02-23T13:25:34.365Z,13.50
2023-02-23T13:28:08.067Z,13.50
2023-02-23T13:30:40.742Z,13.40
2023-02-23T13:33:16.035Z,13.50
2023-02-23T13:35:47.210Z,13.60
2023-02-23T13:38:21.050Z,13.60
2023-02-23T13:40:55.663Z,13.60
2023-02-23T13:43:30.169Z,13.60
2023-02-23T13:46:08.423Z,13.60
2023-02-23T13:48:56.217Z,13.60
2023-02-23T13:51:26.072Z,13.50
2023-02-23T13:54:07.878Z,13.70
2023-02-23T13:56:44.825Z,13.80
2023-02-23T13:59:21.842Z,14.00
2023-02-23T14:01:55.146Z,13.90
2023-02-23T14:04:28.138Z,13.90
2023-02-23T14:07:19.702Z,14.00
2023-02-23T14:09:54.000Z,14.10
2023-02-23T14:12:29.290Z,14.10
2023-02-23T14:15:06.940Z,14.20
2023-02-23T14:17:48.543Z,14.30
2023-02-23T14:20:30.246Z,14.60
2023-02-23T14:23:37.214Z,14.60
2023-02-23T14:26:21.057Z,14.50
2023-02-23T14:29:11.579Z,14.40
2023-02-23T14:31:48.052Z,14.40
2023-02-23T14:34:23.048Z,14.60
2023-02-23T14:36:55.940Z,15.00
2023-02-23T14:39:29.460Z,15.20
2023-02-23T14:42:01.506Z,15.30
2023-02-23T14:44:34.574Z,15.30
2023-02-23T14:47:09.248Z,15.20
2023-02-23T14:49:42.632Z,15.10
2023-02-23T14:52:18.083Z,15.00
2023-02-23T14:54:49.143Z,15.10
2023-02-23T14:57:22.654Z,15.00
2023-02-23T15:00:00.116Z,14.90
2023-02-23T15:02:31.865Z,14.70
2023-02-23T15:05:05.580Z,14.50
2023-02-23T15:07:39.751Z,14.30
2023-02-23T15:10:14.945Z,14.20
2023-02-23T15:12:46.822Z,14.20
2023-02-23T15:15:20.980Z,14.10
2023-02-23T15:17:54.686Z,13.90
2023-02-23T15:20:31.358Z,13.70
2023-02-23T15:23:05.213Z,13.70
2023-02-23T15:25:42.447Z,13.60
2023-02-23T15:28:32.706Z,13.70
2023-02-23T15:31:22.515Z,13.70
2023-02-23T15:33:55.509Z,13.60
2023-02-23T15:36:29.395Z,13.50
2023-02-23T15:39:02.988Z,13.30
2023-02-23T15:41:36.189Z,13.20
2023-02-23T15:44:10.233Z,13.20
2023-02-23T15:46:41.884Z,13.20
2023-02-23T15:49:16.943Z,13.20
2023-02-23T15:51:51.336Z,13.20
2023-02-23T15:54:24.769Z,13.10
2023-02-23T15:56:58.635Z,13.00
2023-02-23T15:59:35.321Z,13.00
2023-02-23T16:02:14.288Z,12.90
2023-02-23T16:04:47.135Z,12.80
2023-02-23T16:07:23.312Z,12.80
2023-02-23T16:09:56.157Z,12.80
2023-02-23T16:12:32.921Z,12.70
2023-02-23T16:15:06.325Z,12.60
2023-02-23T16:20:21.586Z,12.60
2023-02-23T16:22:55.196Z,12.70
2023-02-23T16:25:28.564Z,12.70
2023-02-23T16:28:03.248Z,12.70
2023-02-23T16:30:43.318Z,12.60
2023-02-23T16:33:21.017Z,12.60
2023-02-23T16:35:55.735Z,12.50
2023-02-23T16:38:29.538Z,12.40
2023-02-23T16:41:00.787Z,12.30
2023-02-23T16:43:32.757Z,12.20
2023-02-23T16:46:04.125Z,12.20
2023-02-23T16:48:35.105Z,12.10
2023-02-23T16:51:08.548Z,12.00
2023-02-23T16:53:40.789Z,11.90
2023-02-23T16:56:14.823Z,11.80
2023-02-23T16:58:48.029Z,11.80
2023-02-23T17:01:19.858Z,11.70
2023-02-23T17:03:53.185Z,11.80
2023-02-23T17:06:24.082Z,11.80
2023-02-23T17:08:58.613Z,11.70
2023-02-23T17:11:28.051Z,11.70
2023-02-23T17:13:59.001Z,11.60
2023-02-23T17:16:30.237Z,11.60
2023-02-23T17:19:02.116Z,11.50
2023-02-23T17:21:34.105Z,11.40
2023-02-23T17:24:05.423Z,11.30
2023-02-23T17:26:36.457Z,11.40
2023-02-23T17:29:07.462Z,11.40
2023-02-23T17:31:40.722Z,11.40
2023-02-23T17:34:12.074Z,11.20
2023-02-23T17:36:43.305Z,11.20
2023-02-23T17:39:14.424Z,11.10
2023-02-23T17:41:45.432Z,11.10
2023-02-23T17:44:16.486Z,11.10
2023-02-23T17:46:49.468Z,11.10
2023-02-23T17:49:20.631Z,11.00
2023-02-23T17:51:51.692Z,11.00
2023-02-23T17:54:22.513Z,11.00
2023-02-23T17:56:53.733Z,10.90
2023-02-23T17:59:25.089Z,10.90
2023-02-23T18:01:55.937Z,10.90
2023-02-23T18:04:26.920Z,10.90
2023-02-23T18:06:57.971Z,10.90
2023-02-23T18:09:29.449Z,10.90
2023-02-23T18:12:00.460Z,10.80
2023-02-23T18:17:09.997Z,10.70
2023-02-23T18:19:41.079Z,10.70
2023-02-23T18:22:12.682Z,10.70
2023-02-23T18:24:43.642Z,10.70
2023-02-23T18:27:15.147Z,10.70
2023-02-23T18:29:46.060Z,10.70
2023-02-23T18:32:17.358Z,10.70
2023-02-23T18:34:48.810Z,10.70
2023-02-23T18:37:21.778Z,10.80
2023-02-23T18:39:56.788Z,10.80
2023-02-23T18:42:28.232Z,10.70
2023-02-23T18:44:59.477Z,10.70
2023-02-23T18:47:48.848Z,10.80
2023-02-23T18:50:21.054Z,10.80
2023-02-23T18:52:53.742Z,10.70
2023-02-23T18:55:26.555Z,10.70
2023-02-23T18:57:58.156Z,10.70
2023-02-23T19:00:31.985Z,10.70
2023-02-23T19:03:03.458Z,10.60
2023-02-23T19:05:36.433Z,10.60
2023-02-23T19:08:09.975Z,10.50
2023-02-23T19:10:41.444Z,10.40
2023-02-23T19:13:13.699Z,10.30
2023-02-23T19:15:45.291Z,10.30
2023-02-23T19:18:17.780Z,10.30
2023-02-23T19:20:51.602Z,10.40
2023-02-23T19:23:22.887Z,10.40
2023-02-23T19:25:53.988Z,10.50
2023-02-23T19:28:27.763Z,10.40
2023-02-23T19:31:05.818Z,10.40
2023-02-23T19:33:38.877Z,10.40
2023-02-23T19:36:12.834Z,10.40
2023-02-23T19:38:44.470Z,10.50
2023-02-23T19:41:19.035Z,10.50
2023-02-23T19:43:51.113Z,10.60
2023-02-23T19:46:24.063Z,10.50
2023-02-23T19:48:56.518Z,10.40
2023-02-23T19:51:28.309Z,10.30
2023-02-23T19:54:00.645Z,10.20
2023-02-23T19:56:32.345Z,10.10
2023-02-23T19:59:04.125Z,10.10
2023-02-23T20:01:36.265Z,10.20
2023-02-23T20:04:09.600Z,10.20
2023-02-23T20:06:46.302Z,10.10
2023-02-23T20:09:18.385Z,10.10
2023-02-23T20:11:51.033Z,10.10
2023-02-23T20:14:23.696Z,10.10
2023-02-23T20:16:55.233Z,10.10
2023-02-23T20:19:27.114Z,10.20
2023-02-23T20:21:58.923Z,10.10
2023-02-23T20:24:32.040Z,10.00
2023-02-23T20:27:03.864Z,9.90
2023-02-23T20:29:36.132Z,9.90
2023-02-23T20:32:09.489Z,9.90
2023-02-23T20:37:17.807Z,10.00
2023-02-23T20:39:48.723Z,10.10
2023-02-23T20:42:19.585Z,10.10
2023-02-23T20:44:50.563Z,10.20
2023-02-23T20:47:23.178Z,10.20
2023-02-23T20:49:54.170Z,10.10
2023-02-23T20:52:25.062Z,10.00
2023-02-23T20:54:56.011Z,10.00
2023-02-23T20:57:45.330Z,10.00
2023-02-23T21:00:22.958Z,10.00
2023-02-23T21:02:55.819Z,10.10
2023-02-23T21:05:28.702Z,10.20
2023-02-23T21:08:02.227Z,10.20
2023-02-23T21:10:34.227Z,10.20
2023-02-23T21:13:05.437Z,10.30
2023-02-23T21:15:36.587Z,10.30
2023-02-23T21:18:08.032Z,10.20
2023-02-23T21:20:40.537Z,10.30
2023-02-23T21:23:11.291Z,10.30
2023-02-23T21:25:42.737Z,10.30
2023-02-23T21:28:13.705Z,10.30
2023-02-23T21:30:44.824Z,10.30
2023-02-23T21:33:16.990Z,10.30
2023-02-23T21:35:47.986Z,10.30
2023-02-23T21:38:18.736Z,10.30
2023-02-23T21:40:49.724Z,10.30
2023-02-23T21:43:20.820Z,10.20
2023-02-23T21:45:51.827Z,10.20
2023-02-23T21:48:23.666Z,10.20
2023-02-23T21:50:54.575Z,10.30
2023-02-23T21:53:25.410Z,10.20
2023-02-23T21:55:56.571Z,10.20
2023-02-23T21:58:28.340Z,10.30
2023-02-23T22:00:59.484Z,10.30
2023-02-23T22:03:31.507Z,10.50
2023-02-23T22:06:04.214Z,10.50
2023-02-23T22:08:36.039Z,10.40
2023-02-23T22:11:10.690Z,10.30
2023-02-23T22:13:41.723Z,10.30
2023-02-23T22:16:14.229Z,10.30
2023-02-23T22:18:45.658Z,10.30
2023-02-23T22:21:19.237Z,10.30
2023-02-23T22:23:50.631Z,10.30
2023-02-23T22:26:21.599Z,10.30
2023-02-23T22:28:52.612Z,10.30
2023-02-23T22:31:23.918Z,10.40
2023-02-23T22:33:55.221Z,10.40
2023-02-23T22:36:26.552Z,10.40
2023-02-23T22:38:59.809Z,10.40
2023-02-23T22:41:30.904Z,10.40
2023-02-23T22:44:02.102Z,10.40
2023-02-23T22:46:34.118Z,10.50
2023-02-23T22:49:05.502Z,10.50
2023-02-23T22:51:37.665Z,10.50
2023-02-23T22:54:08.969Z,10.50
2023-02-23T22:56:41.643Z,10.40
2023-02-23T22:59:14.483Z,10.30
2023-02-23T23:01:45.447Z,10.20
2023-02-23T23:04:16.383Z,10.10
2023-02-23T23:06:47.858Z,10.00
2023-02-23T23:09:20.606Z,10.10
2023-02-23T23:11:51.784Z,10.10
2023-02-23T23:14:23.294Z,10.10
2023-02-23T23:16:54.598Z,10.10
2023-02-23T23:19:25.723Z,10.20
2023-02-23T23:21:57.546Z,10.20
2023-02-23T23:24:28.634Z,10.20
2023-02-23T23:27:01.101Z,10.30
2023-02-23T23:29:32.618Z,10.30
2023-02-23T23:32:23.733Z,10.30
2023-02-23T23:34:56.718Z,10.30
2023-02-23T23:37:29.239Z,10.30
2023-02-23T23:40:00.414Z,10.30
2023-02-23T23:42:32.022Z,10.30
2023-02-23T23:45:03.674Z,10.40
2023-02-23T23:47:35.029Z,10.40
2023-02-23T23:50:08.901Z,10.40
2023-02-23T23:52:42.600Z,10.30
2023-02-23T23:55:15.587Z,10.10
2023-02-23T23:57:46.560Z,10.00
